createdAt,value
2019-02-22T00:00:46.308Z,6.72
2019-02-22T00:03:55.729Z,6.67
2019-02-22T00:07:02.534Z,6.66
2019-02-22T00:10:09.982Z,6.63
2019-02-22T00:13:16.631Z,6.60
2019-02-22T00:16:23.297Z,6.64
2019-02-22T00:19:30.218Z,6.71
2019-02-22T00:22:37.505Z,6.68
2019-02-22T00:25:44.826Z,6.92
2019-02-22T00:28:52.185Z,6.91
2019-02-22T00:31:59.269Z,6.87
2019-02-22T00:35:06.151Z,6.70
2019-02-22T00:38:13.171Z,6.59
2019-02-22T00:41:20.359Z,6.67
2019-02-22T00:44:26.841Z,6.63
2019-02-22T00:47:33.996Z,6.94
2019-02-22T00:50:40.906Z,6.99
2019-02-22T00:53:47.408Z,7.07
2019-02-22T00:56:54.119Z,7.07
2019-02-22T01:00:01.330Z,7.11
2019-02-22T01:03:11.869Z,7.09
2019-02-22T01:06:19.072Z,7.01
2019-02-22T01:09:25.628Z,6.99
2019-02-22T01:12:32.422Z,7.12
2019-02-22T01:15:39.180Z,7.09
2019-02-22T01:18:45.582Z,7.09
2019-02-22T01:21:52.139Z,7.02
2019-02-22T01:24:58.669Z,7.00
2019-02-22T01:28:05.302Z,6.97
2019-02-22T01:31:11.624Z,7.01
2019-02-22T01:34:17.841Z,7.06
2019-02-22T01:37:24.504Z,7.00
2019-02-22T01:40:42.705Z,7.09
2019-02-22T01:43:39.203Z,7.16
2019-02-22T01:46:46.111Z,7.15
2019-02-22T01:49:52.522Z,7.14
2019-02-22T01:52:59.026Z,7.12
2019-02-22T01:56:06.610Z,7.14
2019-02-22T01:59:13.082Z,7.16
2019-02-22T02:02:19.782Z,7.11
2019-02-22T02:05:26.152Z,7.34
2019-02-22T02:08:32.738Z,7.29
2019-02-22T02:11:39.461Z,7.33
2019-02-22T02:14:45.898Z,7.34
2019-02-22T02:17:52.324Z,7.37
2019-02-22T02:20:58.897Z,7.33
2019-02-22T02:24:05.895Z,7.37
2019-02-22T02:27:12.470Z,7.32
2019-02-22T02:30:19.747Z,7.35
2019-02-22T02:33:26.348Z,7.34
2019-02-22T02:36:33.262Z,7.40
2019-02-22T02:39:41.300Z,7.41
2019-02-22T02:42:47.906Z,7.30
2019-02-22T02:45:54.561Z,7.28
2019-02-22T02:49:01.462Z,7.27
2019-02-22T02:52:09.249Z,7.30
2019-02-22T02:55:29.690Z,7.32
2019-02-22T02:58:36.719Z,7.21
2019-02-22T03:01:43.519Z,7.28
2019-02-22T03:04:50.729Z,7.33
2019-02-22T03:07:58.019Z,7.33
2019-02-22T03:11:04.213Z,7.24
2019-02-22T03:14:10.915Z,7.29
2019-02-22T03:17:17.650Z,7.22
2019-02-22T03:20:24.283Z,7.23
2019-02-22T03:23:30.649Z,7.22
2019-02-22T03:26:38.800Z,7.07
2019-02-22T03:29:45.375Z,7.07
2019-02-22T03:32:51.833Z,7.06
2019-02-22T03:35:58.334Z,7.12
2019-02-22T03:39:07.002Z,7.15
2019-02-22T03:42:14.449Z,7.21
2019-02-22T03:45:20.779Z,7.14
2019-02-22T03:48:27.342Z,7.28
2019-02-22T03:51:37.033Z,7.28
2019-02-22T03:54:43.342Z,7.20
2019-02-22T03:57:50.092Z,7.23
2019-02-22T04:00:56.683Z,7.20
2019-02-22T04:04:02.959Z,7.21
2019-02-22T04:07:09.534Z,7.24
2019-02-22T04:10:16.408Z,7.20
2019-02-22T04:13:23.373Z,7.26
2019-02-22T04:16:30.092Z,7.21
2019-02-22T04:19:36.842Z,7.25
2019-02-22T04:22:44.567Z,7.22
2019-02-22T04:25:51.317Z,7.22
2019-02-22T04:28:57.739Z,7.18
2019-02-22T04:32:04.366Z,7.28
2019-02-22T04:35:11.048Z,7.18
2019-02-22T04:38:18.155Z,7.11
2019-02-22T04:41:25.760Z,7.09
2019-02-22T04:44:32.522Z,7.17
2019-02-22T04:47:38.854Z,7.18
2019-02-22T04:50:45.312Z,7.12
2019-02-22T04:53:51.795Z,7.10
2019-02-22T04:56:58.638Z,7.07
2019-02-22T05:00:05.074Z,7.12
2019-02-22T05:03:11.731Z,7.09
2019-02-22T05:06:19.338Z,7.03
2019-02-22T05:09:25.623Z,7.04
2019-02-22T05:12:32.154Z,7.04
2019-02-22T05:15:38.907Z,7.01
2019-02-22T05:18:45.260Z,6.87
2019-02-22T05:21:52.261Z,6.99
2019-02-22T05:24:59.251Z,7.00
2019-02-22T05:28:06.063Z,6.89
2019-02-22T05:31:12.309Z,6.95
2019-02-22T05:34:19.057Z,6.94
2019-02-22T05:37:25.495Z,6.93
2019-02-22T05:40:32.085Z,6.96
2019-02-22T05:43:38.757Z,6.85
2019-02-22T05:46:45.248Z,6.79
2019-02-22T05:49:51.573Z,6.88
2019-02-22T05:52:58.249Z,6.73
2019-02-22T05:56:05.054Z,6.75
2019-02-22T05:59:11.389Z,6.69
2019-02-22T06:02:17.987Z,6.70
2019-02-22T06:05:24.787Z,6.70
2019-02-22T06:08:31.300Z,6.80
2019-02-22T06:11:38.082Z,6.72
2019-02-22T06:14:44.767Z,6.76
2019-02-22T06:17:51.447Z,6.78
2019-02-22T06:20:58.179Z,6.77
2019-02-22T06:24:04.437Z,6.72
2019-02-22T06:27:11.526Z,6.62
2019-02-22T06:30:18.478Z,6.67
2019-02-22T06:33:25.152Z,6.67
2019-02-22T06:36:32.081Z,6.61
2019-02-22T06:39:38.960Z,6.61
2019-02-22T06:42:46.272Z,6.66
2019-02-22T06:45:53.106Z,6.65
2019-02-22T06:48:59.596Z,6.72
2019-02-22T06:52:06.110Z,6.74
2019-02-22T06:55:12.744Z,6.69
2019-02-22T06:58:19.289Z,6.67
2019-02-22T07:01:26.037Z,6.77
2019-02-22T07:04:34.635Z,6.73
2019-02-22T07:07:41.706Z,6.62
2019-02-22T07:11:10.620Z,6.74
2019-02-22T07:14:17.261Z,6.77
2019-02-22T07:17:24.098Z,6.71
2019-02-22T07:20:31.981Z,6.72
2019-02-22T07:23:38.523Z,6.75
2019-02-22T07:26:45.009Z,6.72
2019-02-22T07:29:51.592Z,6.76
2019-02-22T07:32:58.653Z,6.73
2019-02-22T07:36:05.367Z,6.78
2019-02-22T07:39:12.019Z,6.80
2019-02-22T07:42:18.762Z,6.94
2019-02-22T07:45:25.330Z,6.84
2019-02-22T07:48:31.826Z,6.90
2019-02-22T07:51:39.521Z,6.86
2019-02-22T07:54:46.250Z,6.93
2019-02-22T07:57:53.173Z,6.99
2019-02-22T08:01:00.473Z,6.99
2019-02-22T08:04:07.113Z,7.00
2019-02-22T08:07:13.764Z,6.88
2019-02-22T08:10:20.953Z,6.94
2019-02-22T08:13:27.636Z,6.99
2019-02-22T08:16:34.732Z,6.91
2019-02-22T08:19:41.301Z,6.82
2019-02-22T08:22:48.547Z,6.86
2019-02-22T08:25:55.449Z,6.78
2019-02-22T08:29:05.725Z,6.70
2019-02-22T08:32:12.468Z,6.65
2019-02-22T08:35:19.312Z,6.61
2019-02-22T08:38:26.048Z,6.64
2019-02-22T08:41:33.479Z,6.60
2019-02-22T08:44:40.292Z,6.51
2019-02-22T08:47:47.241Z,6.45
2019-02-22T08:50:53.627Z,6.39
2019-02-22T08:54:00.159Z,6.44
2019-02-22T08:57:07.125Z,6.42
2019-02-22T09:00:13.759Z,6.38
2019-02-22T09:03:21.454Z,6.31
2019-02-22T09:06:28.683Z,6.39
2019-02-22T09:09:35.490Z,6.44
2019-02-22T09:12:43.169Z,6.44
2019-02-22T09:15:49.843Z,6.46
2019-02-22T09:18:56.604Z,6.41
2019-02-22T09:22:02.982Z,6.38
2019-02-22T09:25:09.673Z,6.40
2019-02-22T09:28:16.853Z,6.45
2019-02-22T09:31:24.295Z,6.43
2019-02-22T09:34:31.119Z,6.55
2019-02-22T09:37:38.051Z,6.62
2019-02-22T09:40:44.687Z,6.54
2019-02-22T09:43:55.059Z,6.59
2019-02-22T09:46:59.862Z,6.59
2019-02-22T09:50:07.863Z,6.66
2019-02-22T09:53:14.583Z,6.81
2019-02-22T09:56:21.384Z,6.88
2019-02-22T09:59:29.364Z,6.91
2019-02-22T10:02:36.026Z,7.12
2019-02-22T10:05:42.490Z,7.04
2019-02-22T10:08:49.184Z,7.20
2019-02-22T10:11:55.900Z,7.28
2019-02-22T10:15:03.537Z,7.17
2019-02-22T10:18:10.232Z,6.80
2019-02-22T10:21:17.553Z,6.71
2019-02-22T10:24:24.105Z,6.76
2019-02-22T10:27:30.479Z,6.84
2019-02-22T10:30:36.971Z,7.01
2019-02-22T10:33:43.680Z,7.06
2019-02-22T10:36:50.521Z,7.00
2019-02-22T10:39:58.081Z,7.14
2019-02-22T10:43:04.660Z,7.03
2019-02-22T10:46:11.385Z,7.19
2019-02-22T10:49:18.035Z,6.96
2019-02-22T10:52:24.562Z,6.87
2019-02-22T10:55:33.440Z,6.62
2019-02-22T10:58:41.179Z,6.68
2019-02-22T11:01:48.119Z,6.69
2019-02-22T11:04:54.883Z,6.71
2019-02-22T11:08:01.844Z,6.72
2019-02-22T11:11:10.171Z,6.74
2019-02-22T11:14:28.409Z,6.68
2019-02-22T11:17:26.657Z,6.66
2019-02-22T11:20:33.409Z,6.49
2019-02-22T11:23:40.024Z,6.72
2019-02-22T11:26:46.713Z,6.82
2019-02-22T11:29:53.718Z,6.70
2019-02-22T11:33:00.764Z,6.71
2019-02-22T11:36:07.428Z,6.75
2019-02-22T11:39:14.163Z,6.82
2019-02-22T11:42:21.193Z,6.84
2019-02-22T11:45:28.101Z,6.85
2019-02-22T11:48:34.603Z,6.69
2019-02-22T11:51:41.528Z,6.84
2019-02-22T11:54:48.333Z,6.56
2019-02-22T11:57:55.820Z,6.55
2019-02-22T12:01:02.513Z,6.83
2019-02-22T12:04:09.492Z,6.84
2019-02-22T12:07:17.390Z,7.01
2019-02-22T12:10:25.586Z,6.84
2019-02-22T12:13:33.118Z,6.87
2019-02-22T12:16:39.770Z,6.89
2019-02-22T12:19:46.642Z,6.96
2019-02-22T12:22:53.651Z,7.03
2019-02-22T12:26:00.558Z,6.64
2019-02-22T12:29:07.050Z,6.75
2019-02-22T12:32:14.084Z,6.84
2019-02-22T12:35:21.200Z,6.48
2019-02-22T12:38:28.421Z,6.24
2019-02-22T12:41:35.846Z,6.24
2019-02-22T12:44:42.444Z,6.16
2019-02-22T12:47:49.311Z,5.96
2019-02-22T12:50:57.008Z,5.97
2019-02-22T12:54:03.922Z,5.89
2019-02-22T12:57:10.429Z,5.94
2019-02-22T13:00:17.540Z,5.84
2019-02-22T13:03:23.963Z,5.79
2019-02-22T13:06:30.669Z,5.81
2019-02-22T13:09:37.407Z,5.94
2019-02-22T13:12:44.856Z,5.65
2019-02-22T13:15:52.594Z,5.64
2019-02-22T13:19:00.042Z,5.54
2019-02-22T13:22:06.760Z,5.60
2019-02-22T13:25:13.363Z,5.54
2019-02-22T13:28:19.922Z,5.33
2019-02-22T13:31:30.095Z,5.29
2019-02-22T13:34:35.569Z,5.13
2019-02-22T13:37:42.290Z,5.16
2019-02-22T13:40:49.737Z,5.09
2019-02-22T13:43:56.452Z,5.02
2019-02-22T13:47:03.370Z,5.10
2019-02-22T13:50:12.364Z,5.12
2019-02-22T13:53:19.209Z,5.07
2019-02-22T13:56:29.750Z,5.01
2019-02-22T13:59:34.615Z,4.86
2019-02-22T14:02:41.313Z,4.85
2019-02-22T14:05:48.124Z,4.81
2019-02-22T14:08:54.829Z,4.81
2019-02-22T14:12:01.920Z,4.74
2019-02-22T14:15:08.690Z,4.60
2019-02-22T14:18:15.589Z,4.52
2019-02-22T14:21:25.029Z,4.46
2019-02-22T14:24:31.611Z,4.43
2019-02-22T14:27:39.544Z,4.20
2019-02-22T14:30:46.135Z,4.25
2019-02-22T14:33:52.477Z,4.08
2019-02-22T14:36:59.916Z,4.07
2019-02-22T14:40:07.987Z,4.08
2019-02-22T14:43:16.782Z,3.83
2019-02-22T14:46:25.839Z,3.87
2019-02-22T14:49:31.430Z,3.95
2019-02-22T14:52:39.948Z,3.96
2019-02-22T14:55:48.443Z,3.98
2019-02-22T14:58:55.345Z,4.00
2019-02-22T15:02:03.744Z,4.00
2019-02-22T15:05:10.723Z,4.01
2019-02-22T15:08:17.302Z,4.03
2019-02-22T15:11:24.215Z,3.91
2019-02-22T15:14:31.352Z,3.95
2019-02-22T15:17:55.760Z,3.94
2019-02-22T15:21:02.673Z,3.95
2019-02-22T15:24:09.957Z,3.91
2019-02-22T15:27:16.845Z,3.81
2019-02-22T15:30:23.615Z,3.82
2019-02-22T15:33:31.241Z,3.65
2019-02-22T15:36:37.879Z,3.51
2019-02-22T15:39:44.767Z,3.54
2019-02-22T15:42:51.943Z,3.47
2019-02-22T15:46:11.486Z,3.42
2019-02-22T15:49:08.626Z,3.43
2019-02-22T15:52:15.004Z,3.48
2019-02-22T15:55:22.089Z,3.41
2019-02-22T15:58:30.345Z,3.47
2019-02-22T16:01:39.210Z,3.45
2019-02-22T16:04:56.326Z,3.48
2019-02-22T16:08:08.642Z,3.46
2019-02-22T16:11:20.509Z,3.43
2019-02-22T16:14:38.052Z,3.40
2019-02-22T16:17:47.626Z,3.39
2019-02-22T16:20:56.816Z,3.33
2019-02-22T16:24:03.312Z,3.27
2019-02-22T16:27:12.193Z,3.29
2019-02-22T16:30:22.773Z,3.27
2019-02-22T16:33:29.944Z,3.33
2019-02-22T16:36:38.384Z,3.23
2019-02-22T16:39:45.314Z,3.28
2019-02-22T16:42:52.691Z,3.25
2019-02-22T16:46:01.584Z,3.23
2019-02-22T16:49:08.639Z,3.13
2019-02-22T16:52:15.302Z,2.99
2019-02-22T16:55:21.682Z,2.98
2019-02-22T16:58:28.384Z,2.95
2019-02-22T17:01:35.896Z,2.85
2019-02-22T17:04:42.547Z,2.79
2019-02-22T17:07:49.067Z,2.84
2019-02-22T17:10:55.959Z,2.81
2019-02-22T17:14:03.039Z,2.81
2019-02-22T17:17:11.301Z,2.80
2019-02-22T17:20:18.131Z,2.76
2019-02-22T17:23:25.074Z,2.80
2019-02-22T17:26:31.960Z,2.79
2019-02-22T17:29:39.220Z,2.77
2019-02-22T17:32:45.684Z,2.72
2019-02-22T17:35:53.963Z,2.72
2019-02-22T17:39:00.779Z,2.60
2019-02-22T17:42:08.992Z,2.60
2019-02-22T17:45:15.530Z,2.63
2019-02-22T17:48:22.613Z,2.71
2019-02-22T17:51:29.860Z,2.72
2019-02-22T17:54:37.051Z,2.61
2019-02-22T17:57:44.167Z,2.64
2019-02-22T18:00:51.140Z,2.56
2019-02-22T18:03:57.919Z,2.60
2019-02-22T18:07:13.340Z,2.56
2019-02-22T18:10:20.229Z,2.51
2019-02-22T18:13:27.030Z,2.52
2019-02-22T18:16:33.585Z,2.46
2019-02-22T18:19:45.300Z,2.35
2019-02-22T18:22:52.094Z,2.46
2019-02-22T18:25:58.453Z,2.37
2019-02-22T18:29:05.246Z,2.39
2019-02-22T18:32:11.874Z,2.41
2019-02-22T18:35:18.981Z,2.21
2019-02-22T18:38:25.337Z,2.30
2019-02-22T18:41:32.967Z,2.27
2019-02-22T18:44:40.039Z,2.25
2019-02-22T18:47:46.743Z,2.19
2019-02-22T18:50:53.825Z,2.26
2019-02-22T18:54:00.845Z,2.24
2019-02-22T18:57:11.119Z,2.18
2019-02-22T19:00:19.943Z,2.22
2019-02-22T19:03:27.189Z,2.20
2019-02-22T19:06:34.707Z,2.20
2019-02-22T19:09:41.340Z,2.15
2019-02-22T19:12:54.566Z,2.16
2019-02-22T19:16:01.745Z,2.08
2019-02-22T19:19:08.622Z,2.04
2019-02-22T19:22:15.368Z,2.02
2019-02-22T19:25:22.254Z,2.06
2019-02-22T19:28:29.547Z,1.89
2019-02-22T19:31:36.779Z,1.83
2019-02-22T19:34:44.336Z,1.84
2019-02-22T19:37:51.878Z,1.83
2019-02-22T19:41:02.104Z,1.86
2019-02-22T19:44:09.067Z,1.85
2019-02-22T19:47:16.422Z,1.82
2019-02-22T19:50:23.085Z,1.81
2019-02-22T19:53:29.911Z,1.83
2019-02-22T19:56:37.226Z,1.89
2019-02-22T19:59:43.871Z,1.82
2019-02-22T20:02:50.371Z,1.79
2019-02-22T20:05:57.178Z,1.84
2019-02-22T20:09:04.245Z,1.78
2019-02-22T20:12:12.736Z,1.81
2019-02-22T20:15:19.331Z,1.70
2019-02-22T20:18:26.853Z,1.70
2019-02-22T20:21:35.149Z,1.66
2019-02-22T20:24:42.024Z,1.52
2019-02-22T20:27:48.626Z,1.54
2019-02-22T20:30:55.274Z,1.49
2019-02-22T20:34:02.054Z,1.51
2019-02-22T20:37:08.815Z,1.48
2019-02-22T20:40:15.670Z,1.51
2019-02-22T20:43:23.117Z,1.42
2019-02-22T20:46:33.509Z,1.41
2019-02-22T20:49:45.822Z,1.49
2019-02-22T20:52:53.935Z,1.40
2019-02-22T20:56:01.670Z,1.34
2019-02-22T20:59:08.476Z,1.32
2019-02-22T21:02:19.542Z,1.33
2019-02-22T21:05:27.523Z,1.31
2019-02-22T21:08:38.101Z,1.26
2019-02-22T21:11:45.094Z,1.28
2019-02-22T21:14:52.948Z,1.29
2019-02-22T21:17:59.745Z,1.23
2019-02-22T21:21:06.845Z,1.18
2019-02-22T21:24:13.359Z,1.07
2019-02-22T21:27:20.258Z,1.05
2019-02-22T21:30:27.080Z,1.05
2019-02-22T21:33:35.134Z,1.09
2019-02-22T21:36:42.217Z,1.09
2019-02-22T21:39:49.843Z,1.03
2019-02-22T21:42:56.392Z,0.97
2019-02-22T21:46:03.196Z,0.95
2019-02-22T21:49:10.068Z,0.96
2019-02-22T21:52:17.318Z,0.92
2019-02-22T21:55:24.146Z,0.84
2019-02-22T21:58:31.308Z,0.81
2019-02-22T22:01:38.728Z,0.68
2019-02-22T22:04:45.481Z,0.70
2019-02-22T22:07:52.183Z,0.63
2019-02-22T22:10:59.283Z,0.69
2019-02-22T22:14:06.244Z,0.76
2019-02-22T22:17:12.996Z,0.76
2019-02-22T22:20:19.363Z,0.74
2019-02-22T22:23:26.285Z,0.66
2019-02-22T22:26:36.311Z,0.67
2019-02-22T22:29:42.890Z,0.70
2019-02-22T22:32:49.361Z,0.66
2019-02-22T22:35:55.946Z,0.59
2019-02-22T22:39:02.643Z,0.53
2019-02-22T22:42:10.450Z,0.63
2019-02-22T22:45:17.253Z,0.41
2019-02-22T22:48:24.265Z,0.49
2019-02-22T22:51:31.402Z,0.50
2019-02-22T22:54:38.206Z,0.47
2019-02-22T22:57:45.205Z,0.41
2019-02-22T23:01:18.267Z,0.07
2019-02-22T23:04:25.108Z,0.13
2019-02-22T23:07:31.856Z,0.25
2019-02-22T23:10:38.607Z,0.21
2019-02-22T23:13:45.295Z,0.14
2019-02-22T23:16:52.657Z,-0.02
2019-02-22T23:20:00.102Z,0.01
2019-02-22T23:23:06.882Z,0.03
2019-02-22T23:26:13.444Z,-0.10
2019-02-22T23:29:21.220Z,-0.09
2019-02-22T23:32:27.842Z,-0.17
2019-02-22T23:35:34.643Z,-0.22
2019-02-22T23:38:41.035Z,-0.24
2019-02-22T23:41:47.760Z,-0.25
2019-02-22T23:44:54.879Z,-0.42
2019-02-22T23:48:01.511Z,-0.27
2019-02-22T23:51:08.344Z,-0.22
2019-02-22T23:54:14.941Z,-0.26
2019-02-22T23:57:21.346Z,-0.37
